Time;durP1;ratioP1;P1;durP2;ratioP2;P2;SDS_P1;SDS_P2;PMS_P1;PMS_P2;Temp;Humidity;BMP_temperature;BMP_pressure;BME280_temperature;BME280_humidity;BME280_pressure;Samples;Min_cycle;Max_cycle;Signal;HPM_P1;HPM_P2
2023/08/05 00:01:33;;;;;;;;;;;;;;;22.00;28.19;97544.00;4957656;29;1086;-77
2023/08/05 00:03:59;;;;;;;;;;;;;;;22.60;27.27;97551.59;4957517;29;993;-78
2023/08/05 00:06:24;;;;;;;;;;;;;;;22.82;26.95;97546.66;4942201;29;1396;-78
2023/08/05 00:08:50;;;;;;;;;;;;;;;22.17;28.10;97553.13;4957362;29;1911;-77
2023/08/05 00:11:15;;;;;;;;;;;;;;;22.35;27.63;97553.28;4957574;29;947;-77
2023/08/05 00:13:41;;;;;;;;;;;;;;;22.32;27.79;97551.38;4957532;29;1081;-77
2023/08/05 00:16:06;;;;;;;;;;;;;;;22.54;27.63;97548.56;4955512;28;1430;-77
2023/08/05 00:18:32;;;;;;;;;;;;;;;22.64;27.30;97552.25;4961767;28;1827;-77
2023/08/05 00:20:58;;;;;;;;;;;;;;;22.20;28.09;97557.91;4961526;28;1235;-77
2023/08/05 00:23:23;;;;;;;;;;;;;;;22.50;27.45;97561.28;4944739;28;981;-77
2023/08/05 00:25:49;;;;;;;;;;;;;;;22.28;27.92;97555.63;4977970;28;1367;-77
2023/08/05 00:28:14;;;;;;;;;;;;;;;22.60;27.50;97558.03;4938061;29;1993;-77
2023/08/05 00:30:40;;;;;;;;;;;;;;;22.60;27.38;97557.25;4938257;29;1027;-77
2023/08/05 00:33:05;;;;;;;;;;;;;;;22.31;27.97;97540.50;4890414;29;947;-77
2023/08/05 00:35:32;;;;;;;;;;;;;;;22.16;28.00;97545.91;4937229;29;1284;-77
2023/08/05 00:37:57;;;;;;;;;;;;;;;22.39;27.61;97546.72;4899716;29;940;-77
2023/08/05 00:40:23;;;;;;;;;;;;;;;22.60;27.17;97540.25;4884253;29;1537;-76
2023/08/05 00:42:48;;;;;;;;;;;;;;;22.67;27.26;97551.31;4884263;29;1352;-76
2023/08/05 00:45:14;;;;;;;;;;;;;;;22.62;27.47;97543.41;4898955;29;1383;-78
2023/08/05 00:47:40;;;;;;;;;;;;;;;22.37;27.55;97538.66;4899802;29;1898;-77
2023/08/05 00:50:05;;;;;;;;;;;;;;;22.47;27.71;97542.34;4900115;29;990;-76
2023/08/05 00:52:31;;;;;;;;;;;;;;;22.38;27.65;97540.22;4884381;29;942;-77
2023/08/05 00:54:56;;;;;;;;;;;;;;;22.95;26.70;97540.13;4867911;29;1891;-77
2023/08/05 00:57:22;;;;;;;;;;;;;;;22.66;27.41;97538.38;4899931;29;992;-77
2023/08/05 00:59:47;;;;;;;;;;;;;;;22.56;27.51;97539.56;4884216;29;987;-77
2023/08/05 01:02:13;;;;;;;;;;;;;;;22.56;27.31;97539.56;4868591;29;1213;-78
2023/08/05 01:04:39;;;;;;;;;;;;;;;22.75;27.03;97541.28;4896291;29;1407;-78
2023/08/05 01:07:04;;;;;;;;;;;;;;;22.71;27.32;97534.16;4918432;29;1983;-77
2023/08/05 01:09:30;;;;;;;;;;;;;;;22.69;27.46;97537.47;4902717;29;938;-77
2023/08/05 01:11:56;;;;;;;;;;;;;;;22.79;27.18;97530.56;4918467;29;1523;-77
2023/08/05 01:14:21;;;;;;;;;;;;;;;22.56;27.40;97528.25;4923812;28;1501;-76
2023/08/05 01:16:47;;;;;;;;;;;;;;;22.40;27.69;97525.63;4977068;28;1073;-77
2023/08/05 01:19:21;;;;;;;;;;;;;;;22.43;27.54;97528.28;4978089;28;911;-77
2023/08/05 01:22:05;;;;;;;;;;;;;;;22.29;27.98;97526.81;4902458;29;1486;-76
2023/08/05 01:24:32;;;;;;;;;;;;;;;22.40;28.09;97525.63;4917225;29;1600;-77
2023/08/05 01:26:57;;;;;;;;;;;;;;;22.20;28.16;97521.06;4883520;29;1911;-77
2023/08/05 01:29:23;;;;;;;;;;;;;;;22.32;28.04;97517.34;4883622;29;1057;-76
2023/08/05 01:31:49;;;;;;;;;;;;;;;22.41;27.77;97518.69;4867973;29;1140;-76
2023/08/05 01:34:14;;;;;;;;;;;;;;;22.20;27.84;97515.41;4882595;29;1334;-77
2023/08/05 01:36:40;;;;;;;;;;;;;;;22.49;27.60;97511.50;4887404;29;972;-77
2023/08/05 01:39:05;;;;;;;;;;;;;;;22.67;27.25;97517.28;4903588;29;971;-78
2023/08/05 01:41:31;;;;;;;;;;;;;;;22.67;27.46;97500.25;4903548;29;1160;-77
2023/08/05 01:43:56;;;;;;;;;;;;;;;22.51;27.64;97515.44;4903454;29;947;-77
2023/08/05 01:46:22;;;;;;;;;;;;;;;22.72;27.32;97513.03;4885914;29;1563;-78
2023/08/05 01:48:48;;;;;;;;;;;;;;;22.65;27.22;97508.44;4856351;29;1907;-77
2023/08/05 01:51:13;;;;;;;;;;;;;;;22.55;27.36;97504.75;4887913;29;1206;-77
2023/08/05 01:53:39;;;;;;;;;;;;;;;22.33;27.84;97510.47;4903956;29;1123;-77
2023/08/05 01:56:04;;;;;;;;;;;;;;;22.42;27.41;97500.41;4893188;29;1375;-77
2023/08/05 01:58:30;;;;;;;;;;;;;;;22.32;27.87;97503.19;4905864;29;1235;-77
2023/08/05 02:00:55;;;;;;;;;;;;;;;22.56;27.40;97505.56;4890378;29;1102;-77
2023/08/05 02:03:22;;;;;;;;;;;;;;;22.62;27.26;97492.34;4906174;29;1136;-77
2023/08/05 02:05:47;;;;;;;;;;;;;;;22.59;27.21;97501.81;4921037;29;1445;-77
2023/08/05 02:08:13;;;;;;;;;;;;;;;22.42;27.62;97500.41;4921467;29;1978;-77
2023/08/05 02:10:39;;;;;;;;;;;;;;;22.44;27.47;97503.59;4905806;29;1673;-77
2023/08/05 02:13:05;;;;;;;;;;;;;;;22.60;27.48;97500.53;4905625;29;1091;-77
2023/08/05 02:15:31;;;;;;;;;;;;;;;22.59;27.32;97501.81;4905320;29;1319;-78
2023/08/05 02:17:56;;;;;;;;;;;;;;;22.45;27.66;97499.50;4902267;29;1118;-78
2023/08/05 02:20:23;;;;;;;;;;;;;;;22.29;28.00;97504.13;4902353;29;1077;-78
2023/08/05 02:22:48;;;;;;;;;;;;;;;22.15;27.99;97503.84;4902405;29;1138;-76
2023/08/05 02:25:14;;;;;;;;;;;;;;;22.50;27.63;97496.84;4901482;29;1318;-77
2023/08/05 02:27:39;;;;;;;;;;;;;;;22.43;27.44;97502.78;4930932;29;1894;-77
2023/08/05 02:30:05;;;;;;;;;;;;;;;22.64;27.40;97495.53;4924331;29;1161;-76
2023/08/05 02:32:32;;;;;;;;;;;;;;;22.57;27.33;97501.47;4924297;29;1210;-76
2023/08/05 02:34:57;;;;;;;;;;;;;;;22.45;27.74;97502.34;4923160;29;1421;-77
2023/08/05 02:37:23;;;;;;;;;;;;;;;22.38;27.75;97511.09;4940057;29;1114;-76
2023/08/05 02:39:48;;;;;;;;;;;;;;;22.45;27.62;97510.84;4924151;29;1238;-78
2023/08/05 02:42:14;;;;;;;;;;;;;;;22.43;27.70;97507.66;4938975;29;1590;-77
2023/08/05 02:44:40;;;;;;;;;;;;;;;22.48;27.34;97502.19;4924112;29;1432;-77
2023/08/05 02:47:05;;;;;;;;;;;;;;;22.15;27.96;97498.19;4942134;29;1964;-77
2023/08/05 02:49:31;;;;;;;;;;;;;;;22.41;27.76;97505.31;4974580;28;962;-77
2023/08/05 02:51:57;;;;;;;;;;;;;;;22.22;28.16;97515.72;4962490;28;1546;-77
2023/08/05 02:54:22;;;;;;;;;;;;;;;22.44;27.50;97514.94;4944997;28;1501;-77
2023/08/05 02:56:48;;;;;;;;;;;;;;;22.42;27.68;97517.44;4962764;28;1222;-77
2023/08/05 02:59:14;;;;;;;;;;;;;;;22.24;27.89;97516.06;4942734;29;1291;-77
2023/08/05 03:01:40;;;;;;;;;;;;;;;22.37;27.62;97507.47;4925501;29;1434;-77
2023/08/05 03:04:06;;;;;;;;;;;;;;;22.44;27.39;97503.59;4958436;29;970;-77
2023/08/05 03:06:32;;;;;;;;;;;;;;;22.47;27.24;97503.44;4942820;29;1103;-77
2023/08/05 03:08:57;;;;;;;;;;;;;;;22.41;27.43;97504.50;4926506;29;1980;-78
2023/08/05 03:11:23;;;;;;;;;;;;;;;22.59;27.05;97510.31;4941721;29;1562;-77
2023/08/05 03:13:49;;;;;;;;;;;;;;;22.41;27.35;97465.63;4951767;29;1336;-77
2023/08/05 03:16:15;;;;;;;;;;;;;;;22.45;27.40;97493.84;4939501;29;1251;-76
2023/08/05 03:19:00;;;;;;;;;;;;;;;22.21;27.77;97499.97;4939178;29;1395;-77
2023/08/05 03:21:28;;;;;;;;;;;;;;;22.25;27.52;97503.47;4924776;29;1714;-77
2023/08/05 03:23:54;;;;;;;;;;;;;;;22.27;27.75;97512.28;4939555;29;1451;-77
2023/08/05 03:26:20;;;;;;;;;;;;;;;22.61;27.23;97507.78;4926525;29;1053;-76
2023/08/05 03:28:46;;;;;;;;;;;;;;;22.26;27.57;97499.38;4926224;29;1907;-76
2023/08/05 03:31:11;;;;;;;;;;;;;;;22.33;27.88;97498.34;4959509;28;1259;-77
2023/08/05 03:33:37;;;;;;;;;;;;;;;22.21;27.91;97507.69;4941110;29;1665;-77
2023/08/05 03:36:04;;;;;;;;;;;;;;;22.28;27.65;97502.56;4910932;29;1204;-77
2023/08/05 03:38:30;;;;;;;;;;;;;;;22.32;27.66;97503.19;4941744;29;1098;-77
2023/08/05 03:40:55;;;;;;;;;;;;;;;22.49;27.51;97505.84;4957977;29;1356;-77
2023/08/05 03:43:21;;;;;;;;;;;;;;;22.49;27.55;97508.66;4938595;29;1329;-77
2023/08/05 03:45:51;;;;;;;;;;;;;;;22.27;28.03;97505.81;4941547;29;1059;-77
2023/08/05 03:48:17;;;;;;;;;;;;;;;22.38;27.78;97500.53;4925789;29;1919;-77
2023/08/05 03:50:42;;;;;;;;;;;;;;;22.55;27.24;97495.47;4941276;29;1377;-76
2023/08/05 03:53:08;;;;;;;;;;;;;;;22.29;27.88;97501.28;4926099;29;889;-77
2023/08/05 03:55:33;;;;;;;;;;;;;;;22.28;27.63;97491.22;4922840;29;1288;-76
2023/08/05 03:57:59;;;;;;;;;;;;;;;22.44;27.47;97498.72;4925680;29;1443;-77
2023/08/05 04:00:25;;;;;;;;;;;;;;;22.45;27.37;97499.50;4941329;29;1581;-76
2023/08/05 04:02:51;;;;;;;;;;;;;;;22.44;27.48;97484.53;4957801;29;997;-77
2023/08/05 04:05:16;;;;;;;;;;;;;;;22.30;27.58;97488.69;4961413;28;1149;-77
2023/08/05 04:07:43;;;;;;;;;;;;;;;22.21;28.08;97497.13;4942459;29;1989;-76
2023/08/05 04:10:12;;;;;;;;;;;;;;;22.52;27.60;97491.50;4919213;29;1219;-77
2023/08/05 04:12:38;;;;;;;;;;;;;;;22.49;27.52;97488.81;4899929;29;1142;-77
2023/08/05 04:15:07;;;;;;;;;;;;;;;22.44;27.47;97486.59;4884854;29;1281;-77
2023/08/05 04:17:34;;;;;;;;;;;;;;;22.31;27.85;97484.59;4899982;29;1238;-77
2023/08/05 04:20:00;;;;;;;;;;;;;;;22.27;27.93;97489.59;4904675;29;1779;-78
2023/08/05 04:22:27;;;;;;;;;;;;;;;22.27;28.06;97486.78;4896318;29;1163;-77
2023/08/05 04:24:53;;;;;;;;;;;;;;;22.34;27.77;97495.03;4903224;29;1040;-77
2023/08/05 04:27:19;;;;;;;;;;;;;;;22.41;27.68;97490.34;4918739;29;1986;-77
2023/08/05 04:29:44;;;;;;;;;;;;;;;22.31;27.95;97490.28;4903514;29;1094;-77
2023/08/05 04:32:10;;;;;;;;;;;;;;;22.32;27.86;97486.19;4903475;29;952;-76
2023/08/05 04:34:37;;;;;;;;;;;;;;;22.62;27.50;97492.34;4903296;29;982;-77
2023/08/05 04:37:19;;;;;;;;;;;;;;;22.34;27.90;97497.88;4918756;29;921;-77
2023/08/05 04:39:44;;;;;;;;;;;;;;;22.48;27.93;97490.06;4918515;29;942;-77
2023/08/05 04:42:10;;;;;;;;;;;;;;;22.40;27.71;97488.75;4919141;29;1110;-77
2023/08/05 04:44:37;;;;;;;;;;;;;;;22.59;27.48;97479.13;4899825;29;1600;-77
2023/08/05 04:47:03;;;;;;;;;;;;;;;22.40;28.04;97491.59;4907472;29;1915;-77
2023/08/05 04:49:29;;;;;;;;;;;;;;;22.62;27.64;97486.69;4943351;29;1027;-76
2023/08/05 04:51:54;;;;;;;;;;;;;;;22.52;27.81;97502.84;4957886;29;957;-77
2023/08/05 04:54:20;;;;;;;;;;;;;;;22.54;27.69;97499.56;4957585;29;945;-77
2023/08/05 04:56:45;;;;;;;;;;;;;;;22.60;27.83;97495.66;4959301;29;952;-78
2023/08/05 04:59:11;;;;;;;;;;;;;;;22.28;28.15;97505.38;4961910;28;914;-77
2023/08/05 05:01:36;;;;;;;;;;;;;;;22.47;27.98;97499.81;4960870;28;962;-76
2023/08/05 05:04:02;;;;;;;;;;;;;;;22.50;27.97;97501.75;4978182;28;988;-77
2023/08/05 05:06:28;;;;;;;;;;;;;;;22.51;27.78;97514.66;4943882;28;940;-77
2023/08/05 05:08:53;;;;;;;;;;;;;;;22.74;27.62;97511.34;4937055;29;1993;-77
2023/08/05 05:11:19;;;;;;;;;;;;;;;22.56;27.93;97514.06;4905620;29;947;-77
2023/08/05 05:13:47;;;;;;;;;;;;;;;22.41;28.35;97518.69;4937406;29;1070;-76
2023/08/05 05:16:12;;;;;;;;;;;;;;;22.52;28.24;97517.03;4937407;29;1020;-76
2023/08/05 05:18:38;;;;;;;;;;;;;;;22.36;28.30;97512.34;4937269;29;1872;-77
2023/08/05 05:21:03;;;;;;;;;;;;;;;22.34;28.13;97516.91;4937563;29;918;-77
2023/08/05 05:23:29;;;;;;;;;;;;;;;22.27;28.21;97512.28;4937414;29;839;-77
2023/08/05 05:25:55;;;;;;;;;;;;;;;22.66;27.87;97515.69;4937151;29;994;-76
2023/08/05 05:28:20;;;;;;;;;;;;;;;22.46;28.28;97509.59;4921265;29;1911;-76
2023/08/05 05:30:46;;;;;;;;;;;;;;;22.39;28.48;97512.69;4937213;29;911;-77
2023/08/05 05:33:11;;;;;;;;;;;;;;;22.26;28.37;97499.38;4937087;29;1069;-76
2023/08/05 05:35:37;;;;;;;;;;;;;;;22.44;28.26;97510.06;4937390;29;897;-76
2023/08/05 05:38:03;;;;;;;;;;;;;;;22.40;28.49;97508.59;4890212;29;964;-77
2023/08/05 05:40:28;;;;;;;;;;;;;;;22.40;28.51;97497.28;4967601;28;995;-76
2023/08/05 05:42:54;;;;;;;;;;;;;;;22.38;28.36;97500.53;4977957;28;947;-76
2023/08/05 05:45:21;;;;;;;;;;;;;;;22.48;28.21;97495.72;4960596;28;1383;-77
2023/08/05 05:47:46;;;;;;;;;;;;;;;22.54;28.25;97500.34;4977694;28;1902;-76
2023/08/05 05:50:12;;;;;;;;;;;;;;;22.33;28.39;97498.34;4977216;28;1167;-77
2023/08/05 05:52:38;;;;;;;;;;;;;;;22.43;28.29;97502.00;4977583;28;1019;-76
2023/08/05 05:55:04;;;;;;;;;;;;;;;22.41;28.39;97496.00;4977581;28;906;-76
2023/08/05 05:57:29;;;;;;;;;;;;;;;22.62;28.27;97486.69;4977871;28;929;-76
2023/08/05 05:59:56;;;;;;;;;;;;;;;22.69;28.13;97486.41;4977365;28;976;-76
2023/08/05 06:02:21;;;;;;;;;;;;;;;22.77;27.94;97481.25;4960102;28;1163;-77
2023/08/05 06:04:47;;;;;;;;;;;;;;;22.61;28.30;97485.09;4977215;28;923;-76
2023/08/05 06:07:13;;;;;;;;;;;;;;;22.56;28.44;97494.22;4964836;28;1902;-77
2023/08/05 06:09:38;;;;;;;;;;;;;;;22.49;28.53;97486.78;4957392;29;1015;-77
2023/08/05 06:12:04;;;;;;;;;;;;;;;22.51;28.42;97491.97;4958151;29;882;-77
2023/08/05 06:14:30;;;;;;;;;;;;;;;22.54;28.64;97493.91;4956113;29;994;-77
2023/08/05 06:16:55;;;;;;;;;;;;;;;22.63;28.32;97491.88;4955884;29;971;-76
2023/08/05 06:19:21;;;;;;;;;;;;;;;22.62;28.42;97486.69;4955728;29;1013;-76
2023/08/05 06:21:47;;;;;;;;;;;;;;;22.47;28.85;97499.81;4957344;28;956;-76
2023/08/05 06:24:12;;;;;;;;;;;;;;;22.61;28.51;97490.78;4959458;29;1021;-76
2023/08/05 06:26:38;;;;;;;;;;;;;;;22.43;28.87;97493.50;4959612;29;947;-77
2023/08/05 06:29:03;;;;;;;;;;;;;;;22.31;29.00;97495.94;4939614;29;1911;-76
2023/08/05 06:31:30;;;;;;;;;;;;;;;22.48;28.87;97502.19;4924104;29;1027;-77
2023/08/05 06:33:56;;;;;;;;;;;;;;;22.56;28.83;97497.06;4939910;29;1144;-76
2023/08/05 06:36:21;;;;;;;;;;;;;;;22.48;29.08;97487.22;4940203;29;904;-76
2023/08/05 06:38:47;;;;;;;;;;;;;;;22.38;29.12;97494.09;4940107;29;934;-77
2023/08/05 06:41:13;;;;;;;;;;;;;;;22.24;29.48;97496.22;4908085;29;949;-77
2023/08/05 06:43:38;;;;;;;;;;;;;;;22.31;29.40;97495.94;4939905;29;955;-76
2023/08/05 06:46:04;;;;;;;;;;;;;;;22.22;29.19;97490.22;4936581;29;1167;-77
2023/08/05 06:48:29;;;;;;;;;;;;;;;22.22;29.12;97489.41;4939633;29;2001;-76
2023/08/05 06:50:55;;;;;;;;;;;;;;;22.54;28.76;97491.06;4939979;29;915;-76
2023/08/05 06:53:20;;;;;;;;;;;;;;;22.54;29.14;97494.69;4939959;29;990;-77
2023/08/05 06:55:46;;;;;;;;;;;;;;;22.41;29.15;97496.00;4939772;29;1352;-77
2023/08/05 06:58:12;;;;;;;;;;;;;;;22.59;28.85;97502.59;4939890;29;915;-76
2023/08/05 07:00:37;;;;;;;;;;;;;;;22.72;28.65;97488.31;4970018;28;951;-76
2023/08/05 07:03:03;;;;;;;;;;;;;;;22.72;28.77;97493.19;4963198;28;1109;-77
2023/08/05 07:05:31;;;;;;;;;;;;;;;22.52;29.14;97499.22;4979900;28;857;-76
2023/08/05 07:07:56;;;;;;;;;;;;;;;22.52;29.01;97488.66;4979853;28;1922;-77
2023/08/05 07:10:23;;;;;;;;;;;;;;;22.18;29.69;97495.25;4962933;28;858;-76
2023/08/05 07:12:48;;;;;;;;;;;;;;;22.35;29.32;97481.66;4962866;28;922;-77
2023/08/05 07:15:14;;;;;;;;;;;;;;;22.47;29.16;97491.31;4962875;28;918;-77
2023/08/05 07:17:40;;;;;;;;;;;;;;;22.69;29.05;97496.94;4966872;28;1771;-77
2023/08/05 07:20:06;;;;;;;;;;;;;;;22.80;28.73;97492.47;4979821;28;1418;-77
2023/08/05 07:22:31;;;;;;;;;;;;;;;22.60;29.09;97472.97;4978424;28;1422;-78
2023/08/05 07:24:57;;;;;;;;;;;;;;;22.65;28.96;97484.97;4958988;29;1829;-77
2023/08/05 07:27:22;;;;;;;;;;;;;;;22.63;29.04;97476.91;4953143;29;2538;-77
2023/08/05 07:29:48;;;;;;;;;;;;;;;22.46;29.54;97473.53;4942439;29;911;-76
2023/08/05 07:32:14;;;;;;;;;;;;;;;22.59;29.11;97481.97;4910808;29;1056;-77
2023/08/05 07:34:40;;;;;;;;;;;;;;;22.69;28.72;97489.25;4958170;29;1197;-77
2023/08/05 07:37:06;;;;;;;;;;;;;;;22.78;28.95;97500.63;4958027;29;1059;-77
2023/08/05 07:39:34;;;;;;;;;;;;;;;22.76;29.01;97491.81;4958013;29;876;-77
2023/08/05 07:42:03;;;;;;;;;;;;;;;22.81;28.81;97499.72;4957907;29;976;-76
2023/08/05 07:44:31;;;;;;;;;;;;;;;22.79;28.83;97495.75;4926199;29;1189;-76
2023/08/05 07:46:57;;;;;;;;;;;;;;;22.55;29.11;97506.81;4941690;29;1064;-76
2023/08/05 07:49:23;;;;;;;;;;;;;;;22.58;29.30;97497.38;4958273;29;1977;-76
2023/08/05 07:51:51;;;;;;;;;;;;;;;22.68;29.10;97490.50;4942429;29;1045;-76
2023/08/05 07:54:17;;;;;;;;;;;;;;;22.77;28.87;97481.25;4958170;29;987;-77
2023/08/05 07:56:43;;;;;;;;;;;;;;;22.61;29.05;97493.63;4957706;29;962;-76
2023/08/05 07:59:10;;;;;;;;;;;;;;;22.75;28.95;97481.72;4958485;28;876;-77
2023/08/05 08:01:38;;;;;;;;;;;;;;;22.69;28.88;97492.09;4962151;28;942;-76
2023/08/05 08:04:07;;;;;;;;;;;;;;;22.48;29.22;97495.72;4979168;28;955;-77
2023/08/05 08:06:32;;;;;;;;;;;;;;;22.81;28.84;97498.91;4946036;28;1059;-77
2023/08/05 08:08:58;;;;;;;;;;;;;;;22.77;28.92;97489.75;4961739;28;1910;-77
2023/08/05 08:11:23;;;;;;;;;;;;;;;22.88;28.43;97505.13;4945910;28;1269;-76
2023/08/05 08:13:49;;;;;;;;;;;;;;;22.72;28.77;97496.81;4961383;28;901;-77
2023/08/05 08:16:15;;;;;;;;;;;;;;;22.73;28.89;97498.38;4958202;29;924;-76
2023/08/05 08:18:41;;;;;;;;;;;;;;;22.62;29.09;97503.69;4959295;29;891;-76
2023/08/05 08:21:07;;;;;;;;;;;;;;;22.39;29.45;97498.53;4957335;29;973;-76
2023/08/05 08:23:32;;;;;;;;;;;;;;;22.46;29.46;97489.75;4941532;29;934;-77
2023/08/05 08:25:58;;;;;;;;;;;;;;;22.56;29.30;97494.22;4925502;29;988;-77
2023/08/05 08:28:24;;;;;;;;;;;;;;;22.55;29.24;97498.31;4957214;29;1914;-76
2023/08/05 08:30:54;;;;;;;;;;;;;;;22.74;28.99;97491.50;4941505;29;1006;-76
2023/08/05 08:33:21;;;;;;;;;;;;;;;22.39;29.59;97495.69;4948691;28;1278;-77
2023/08/05 08:35:47;;;;;;;;;;;;;;;22.50;29.42;97496.84;4944506;28;939;-76
2023/08/05 08:38:12;;;;;;;;;;;;;;;22.55;29.43;97498.31;4920519;29;1762;-77
2023/08/05 08:40:38;;;;;;;;;;;;;;;22.75;28.95;97490.22;4902792;29;1221;-77
2023/08/05 08:43:03;;;;;;;;;;;;;;;22.83;28.66;97483.00;4903050;29;993;-77
2023/08/05 08:45:31;;;;;;;;;;;;;;;22.90;28.65;97478.31;4911839;29;1178;-77
2023/08/05 08:47:57;;;;;;;;;;;;;;;22.60;29.29;97478.66;4884014;29;1919;-77
2023/08/05 08:50:23;;;;;;;;;;;;;;;22.71;29.08;97472.56;4884072;29;868;-77
2023/08/05 08:52:48;;;;;;;;;;;;;;;22.84;28.73;97473.22;4869023;29;987;-76
2023/08/05 08:55:14;;;;;;;;;;;;;;;22.67;28.95;97471.91;4843974;29;891;-76
2023/08/05 08:57:39;;;;;;;;;;;;;;;22.84;28.68;97470.38;4828303;29;1333;-76
2023/08/05 09:00:05;;;;;;;;;;;;;;;22.66;29.34;97470.31;4843533;29;963;-76
2023/08/05 09:02:32;;;;;;;;;;;;;;;22.60;29.31;97469.34;4843498;29;1026;-77
2023/08/05 09:04:58;;;;;;;;;;;;;;;22.44;29.40;97458.25;4828719;29;893;-76
2023/08/05 09:07:26;;;;;;;;;;;;;;;22.49;29.51;97454.81;4828718;29;1972;-77
2023/08/05 09:09:52;;;;;;;;;;;;;;;22.61;29.31;97456.75;4872091;29;943;-77
2023/08/05 09:12:17;;;;;;;;;;;;;;;22.84;29.03;97461.88;4899474;29;917;-78
2023/08/05 09:14:43;;;;;;;;;;;;;;;22.45;29.54;97454.16;4899148;29;2025;-76
2023/08/05 09:17:08;;;;;;;;;;;;;;;22.67;29.23;97465.44;4871513;29;901;-77
2023/08/05 09:19:34;;;;;;;;;;;;;;;22.70;29.33;97448.28;4894638;29;1851;-76
2023/08/05 09:22:00;;;;;;;;;;;;;;;22.79;29.20;97450.34;4898950;29;1466;-77
2023/08/05 09:24:25;;;;;;;;;;;;;;;22.71;29.13;97455.53;4898654;29;1411;-76
2023/08/05 09:26:57;;;;;;;;;;;;;;;22.60;29.38;97441.00;4898827;29;1557;-77
2023/08/05 09:29:23;;;;;;;;;;;;;;;22.59;29.62;97443.03;4883433;29;1922;-77
2023/08/05 09:31:59;;;;;;;;;;;;;;;22.67;29.36;97437.09;4908557;29;978;-76
2023/08/05 09:34:34;;;;;;;;;;;;;;;22.48;29.71;97436.97;4941239;29;740;-77
2023/08/05 09:37:00;;;;;;;;;;;;;;;22.61;29.63;97443.34;4941253;29;962;-76
2023/08/05 09:39:30;;;;;;;;;;;;;;;22.72;29.40;97434.44;4958204;29;923;-78
2023/08/05 09:41:56;;;;;;;;;;;;;;;22.65;29.54;97436.78;4941926;29;909;-76
2023/08/05 09:44:21;;;;;;;;;;;;;;;22.70;29.32;97425.59;4940810;29;969;-76
2023/08/05 09:46:48;;;;;;;;;;;;;;;22.63;29.59;97432.31;4975031;28;1162;-77
2023/08/05 09:49:17;;;;;;;;;;;;;;;22.73;29.36;97424.66;4960411;28;1910;-77
2023/08/05 09:51:42;;;;;;;;;;;;;;;22.59;29.64;97430.91;4922101;29;975;-76
2023/08/05 09:54:09;;;;;;;;;;;;;;;22.78;29.34;97426.09;4936780;29;950;-76
2023/08/05 09:56:35;;;;;;;;;;;;;;;22.78;29.47;97426.88;4938530;29;973;-76
2023/08/05 09:59:00;;;;;;;;;;;;;;;22.85;29.22;97415.25;4940484;29;1018;-77
2023/08/05 10:01:26;;;;;;;;;;;;;;;22.67;29.52;97420.84;4924615;29;974;-76
2023/08/05 10:03:51;;;;;;;;;;;;;;;22.82;29.06;97410.50;4924646;29;1566;-76
2023/08/05 10:06:17;;;;;;;;;;;;;;;22.81;29.39;97408.16;4940136;29;916;-76
2023/08/05 10:08:43;;;;;;;;;;;;;;;22.69;29.38;97418.34;4940431;29;1902;-77
2023/08/05 10:11:08;;;;;;;;;;;;;;;22.77;29.22;97422.47;4940081;29;1029;-77
2023/08/05 10:13:37;;;;;;;;;;;;;;;22.75;29.29;97421.38;4940431;29;1035;-77
2023/08/05 10:16:03;;;;;;;;;;;;;;;22.68;29.35;97419.59;4939878;29;1960;-76
2023/08/05 10:18:29;;;;;;;;;;;;;;;22.64;29.46;97418.97;4939861;29;958;-77
2023/08/05 10:20:54;;;;;;;;;;;;;;;22.57;29.79;97427.75;4940223;29;1021;-77
2023/08/05 10:23:20;;;;;;;;;;;;;;;22.60;29.74;97415.47;4953615;28;1013;-77
2023/08/05 10:25:49;;;;;;;;;;;;;;;22.58;29.69;97403.78;4977324;28;1025;-77
2023/08/05 10:28:24;;;;;;;;;;;;;;;22.65;29.39;97416.91;4962601;28;2009;-76
2023/08/05 10:30:50;;;;;;;;;;;;;;;22.55;29.72;97425.38;4980414;28;1445;-77
2023/08/05 10:33:18;;;;;;;;;;;;;;;22.33;30.01;97407.63;4979965;28;1458;-77
2023/08/05 10:35:44;;;;;;;;;;;;;;;22.76;29.35;97418.06;4952211;29;1598;-77
2023/08/05 10:38:15;;;;;;;;;;;;;;;22.95;28.85;97415.28;4913396;29;1693;-77
2023/08/05 10:40:43;;;;;;;;;;;;;;;22.93;28.84;97415.78;4894464;29;1686;-76
2023/08/05 10:43:09;;;;;;;;;;;;;;;22.75;29.36;97410.03;4911870;29;1611;-77
2023/08/05 10:45:35;;;;;;;;;;;;;;;22.91;29.13;97400.50;4892615;29;1075;-78
2023/08/05 10:48:00;;;;;;;;;;;;;;;22.80;29.35;97407.38;4920450;29;1906;-77
2023/08/05 10:50:46;;;;;;;;;;;;;;;22.98;28.93;97408.69;4920636;29;978;-77
2023/08/05 10:53:12;;;;;;;;;;;;;;;22.86;29.13;97416.06;4920271;29;1203;-76
2023/08/05 10:55:47;;;;;;;;;;;;;;;22.68;29.42;97405.41;4920896;29;928;-77
2023/08/05 10:58:13;;;;;;;;;;;;;;;22.60;29.49;97398.47;4904483;29;1028;-77
2023/08/05 11:00:44;;;;;;;;;;;;;;;22.59;29.56;97391.22;4920588;29;1143;-77
2023/08/05 11:03:28;;;;;;;;;;;;;;;22.60;29.47;97398.47;4920080;29;1041;-76
2023/08/05 11:05:54;;;;;;;;;;;;;;;22.72;29.40;97389.03;4923676;29;1321;-77
2023/08/05 11:08:23;;;;;;;;;;;;;;;22.81;29.30;97391.91;4938614;29;1987;-76
2023/08/05 11:10:49;;;;;;;;;;;;;;;22.85;29.02;97392.56;4939419;29;1052;-77
2023/08/05 11:13:15;;;;;;;;;;;;;;;22.97;28.95;97387.25;4938957;29;982;-78
2023/08/05 11:15:40;;;;;;;;;;;;;;;22.74;29.46;97397.91;4950291;29;977;-76
2023/08/05 11:18:09;;;;;;;;;;;;;;;22.88;29.36;97403.00;4956333;29;1928;-77
2023/08/05 11:20:35;;;;;;;;;;;;;;;22.75;29.36;97399.47;4959500;28;1763;-76
2023/08/05 11:23:00;;;;;;;;;;;;;;;22.97;29.17;97395.78;4942927;29;991;-76
2023/08/05 11:25:26;;;;;;;;;;;;;;;22.50;29.76;97379.84;4959221;29;1248;-77
2023/08/05 11:27:53;;;;;;;;;;;;;;;22.54;29.85;97383.31;4959256;29;1907;-77
2023/08/05 11:30:19;;;;;;;;;;;;;;;22.83;29.41;97378.03;4959734;29;945;-76
2023/08/05 11:33:02;;;;;;;;;;;;;;;22.65;29.59;97372.34;4959013;29;977;-77
2023/08/05 11:35:28;;;;;;;;;;;;;;;22.79;29.57;97363.22;4959763;29;1026;-76
2023/08/05 11:37:54;;;;;;;;;;;;;;;22.78;29.58;97360.84;4960418;29;885;-77
2023/08/05 11:40:20;;;;;;;;;;;;;;;22.99;29.09;97370.56;4942783;29;1280;-77
2023/08/05 11:42:45;;;;;;;;;;;;;;;22.70;29.70;97356.75;4960088;29;933;-75
2023/08/05 11:45:14;;;;;;;;;;;;;;;22.73;29.46;97365.09;4959850;29;1083;-76
2023/08/05 11:47:40;;;;;;;;;;;;;;;22.63;29.82;97358.59;4959022;29;1988;-77
2023/08/05 11:50:09;;;;;;;;;;;;;;;22.66;29.74;97356.09;4958393;29;958;-77
2023/08/05 11:52:34;;;;;;;;;;;;;;;22.77;29.48;97360.06;4942861;29;1129;-77
2023/08/05 11:55:00;;;;;;;;;;;;;;;22.77;29.63;97360.06;4959899;29;872;-76
2023/08/05 11:57:26;;;;;;;;;;;;;;;22.86;29.66;97357.25;4904956;29;1131;-77
2023/08/05 11:59:53;;;;;;;;;;;;;;;22.72;29.64;97354.22;4922183;29;1019;-77
2023/08/05 12:02:19;;;;;;;;;;;;;;;22.62;30.01;97347.75;4922221;29;900;-77
2023/08/05 12:04:49;;;;;;;;;;;;;;;22.67;29.91;97347.13;4937984;29;940;-76
2023/08/05 12:07:15;;;;;;;;;;;;;;;22.40;30.05;97347.81;4937776;29;903;-77
2023/08/05 12:09:40;;;;;;;;;;;;;;;22.69;29.66;97340.97;4938195;29;1982;-77
2023/08/05 12:12:11;;;;;;;;;;;;;;;22.86;29.53;97342.28;4938250;29;899;-77
2023/08/05 12:14:36;;;;;;;;;;;;;;;22.76;29.68;97330.13;4937828;29;1032;-76
2023/08/05 12:17:03;;;;;;;;;;;;;;;22.78;29.55;97327.59;4922068;29;1116;-76
2023/08/05 12:19:29;;;;;;;;;;;;;;;22.84;29.53;97328.56;4937333;29;948;-76
2023/08/05 12:21:54;;;;;;;;;;;;;;;22.77;29.52;97317.53;4935209;29;1830;-76
2023/08/05 12:24:20;;;;;;;;;;;;;;;22.95;29.39;97316.00;4923794;29;1675;-78
2023/08/05 12:26:45;;;;;;;;;;;;;;;22.85;29.46;97318.03;4922078;29;1177;-76
2023/08/05 12:29:11;;;;;;;;;;;;;;;22.83;29.22;97309.19;4970989;28;1981;-77
2023/08/05 12:31:37;;;;;;;;;;;;;;;22.80;29.33;97308.09;4957386;28;1622;-76
2023/08/05 12:34:03;;;;;;;;;;;;;;;22.90;29.24;97310.94;4960406;28;1633;-77
2023/08/05 12:36:29;;;;;;;;;;;;;;;22.61;29.93;97301.59;4977786;28;1548;-77
2023/08/05 12:38:55;;;;;;;;;;;;;;;22.81;29.52;97306.81;4977963;28;1587;-77
2023/08/05 12:41:20;;;;;;;;;;;;;;;22.85;29.45;97303.84;4941612;29;1392;-76
2023/08/05 12:43:46;;;;;;;;;;;;;;;22.76;29.82;97292.47;4956661;28;1968;-77
2023/08/05 12:46:12;;;;;;;;;;;;;;;22.86;29.51;97296.91;4976314;28;1389;-78
2023/08/05 12:48:37;;;;;;;;;;;;;;;22.90;29.23;97291.09;4977837;28;1995;-76
2023/08/05 12:51:03;;;;;;;;;;;;;;;22.77;29.55;97286.34;4960673;28;1565;-77
2023/08/05 12:53:28;;;;;;;;;;;;;;;22.92;29.30;97291.44;4959958;28;1588;-76
2023/08/05 12:55:54;;;;;;;;;;;;;;;22.80;29.58;97281.78;4966752;28;1608;-76